sensor_id;sensor_type;location;lat;lon;timestamp;P1;durP1;ratioP1;P2;durP2;ratioP2
16837;SDS011;19510;54.486;9.046;2022-12-18T07:45:25;25.40;;;10.67;;
16837;SDS011;19510;54.486;9.046;2022-12-18T07:47:51;19.70;;;10.33;;
16837;SDS011;19510;54.486;9.046;2022-12-18T07:50:16;23.20;;;11.60;;
16837;SDS011;19510;54.486;9.046;2022-12-18T07:52:42;18.80;;;10.03;;
16837;SDS011;19510;54.486;9.046;2022-12-18T08:01:29;18.17;;;10.37;;
16837;SDS011;19510;54.486;9.046;2022-12-18T08:03:55;16.67;;;9.47;;
16837;SDS011;19510;54.486;9.046;2022-12-18T08:06:21;21.00;;;10.20;;
16837;SDS011;19510;54.486;9.046;2022-12-18T08:08:47;20.00;;;10.40;;
16837;SDS011;19510;54.486;9.046;2022-12-18T08:11:13;24.93;;;12.10;;
16837;SDS011;19510;54.486;9.046;2022-12-18T08:13:38;18.97;;;10.63;;
16837;SDS011;19510;54.486;9.046;2022-12-18T08:16:05;19.73;;;9.73;;
16837;SDS011;19510;54.486;9.046;2022-12-18T08:18:32;18.37;;;9.73;;
16837;SDS011;19510;54.486;9.046;2022-12-18T08:21:06;21.60;;;11.10;;
16837;SDS011;19510;54.486;9.046;2022-12-18T08:23:34;19.43;;;9.27;;
16837;SDS011;19510;54.486;9.046;2022-12-18T08:26:00;16.97;;;10.47;;
16837;SDS011;19510;54.486;9.046;2022-12-18T08:28:27;18.30;;;10.47;;
16837;SDS011;19510;54.486;9.046;2022-12-18T08:30:52;16.87;;;9.60;;
16837;SDS011;19510;54.486;9.046;2022-12-18T08:40:05;18.37;;;9.73;;
16837;SDS011;19510;54.486;9.046;2022-12-18T08:42:33;16.17;;;8.93;;
16837;SDS011;19510;54.486;9.046;2022-12-18T08:45:17;18.60;;;9.47;;
16837;SDS011;19510;54.486;9.046;2022-12-18T08:47:42;18.27;;;9.07;;
16837;SDS011;19510;54.486;9.046;2022-12-18T08:50:10;21.07;;;9.60;;
16837;SDS011;19510;54.486;9.046;2022-12-18T08:52:36;15.00;;;9.23;;
16837;SDS011;19510;54.486;9.046;2022-12-18T08:55:02;20.07;;;9.67;;
16837;SDS011;19510;54.486;9.046;2022-12-18T08:57:31;17.83;;;9.90;;
16837;SDS011;19510;54.486;9.046;2022-12-18T08:59:57;14.10;;;8.20;;
16837;SDS011;19510;54.486;9.046;2022-12-18T09:02:22;17.53;;;9.43;;
16837;SDS011;19510;54.486;9.046;2022-12-18T09:04:48;18.30;;;9.30;;
16837;SDS011;19510;54.486;9.046;2022-12-18T09:07:15;14.97;;;8.17;;
16837;SDS011;19510;54.486;9.046;2022-12-18T09:09:40;17.30;;;8.70;;
16837;SDS011;19510;54.486;9.046;2022-12-18T09:12:06;13.40;;;8.63;;
16837;SDS011;19510;54.486;9.046;2022-12-18T09:14:32;15.60;;;7.70;;
16837;SDS011;19510;54.486;9.046;2022-12-18T09:16:58;16.77;;;7.83;;
16837;SDS011;19510;54.486;9.046;2022-12-18T09:19:24;15.93;;;8.47;;
16837;SDS011;19510;54.486;9.046;2022-12-18T09:21:50;15.43;;;7.50;;
16837;SDS011;19510;54.486;9.046;2022-12-18T09:24:16;12.60;;;8.13;;
16837;SDS011;19510;54.486;9.046;2022-12-18T09:26:44;16.37;;;8.63;;
16837;SDS011;19510;54.486;9.046;2022-12-18T09:29:10;14.93;;;8.23;;
16837;SDS011;19510;54.486;9.046;2022-12-18T09:31:36;12.03;;;7.17;;
16837;SDS011;19510;54.486;9.046;2022-12-18T09:34:03;10.70;;;6.53;;
16837;SDS011;19510;54.486;9.046;2022-12-18T09:36:30;12.60;;;7.77;;
16837;SDS011;19510;54.486;9.046;2022-12-18T09:38:56;13.47;;;7.30;;
16837;SDS011;19510;54.486;9.046;2022-12-18T09:44:53;18.50;;;7.47;;
16837;SDS011;19510;54.486;9.046;2022-12-18T09:49:38;11.83;;;7.37;;
16837;SDS011;19510;54.486;9.046;2022-12-18T09:52:21;13.70;;;7.03;;
16837;SDS011;19510;54.486;9.046;2022-12-18T09:55:03;12.80;;;6.93;;
16837;SDS011;19510;54.486;9.046;2022-12-18T09:57:33;10.30;;;6.50;;
16837;SDS011;19510;54.486;9.046;2022-12-18T10:00:08;15.83;;;7.53;;
16837;SDS011;19510;54.486;9.046;2022-12-18T10:02:42;13.43;;;6.80;;
16837;SDS011;19510;54.486;9.046;2022-12-18T10:05:10;10.63;;;6.47;;
16837;SDS011;19510;54.486;9.046;2022-12-18T10:10:37;10.90;;;6.47;;
16837;SDS011;19510;54.486;9.046;2022-12-18T10:16:15;12.37;;;6.97;;
16837;SDS011;19510;54.486;9.046;2022-12-18T10:21:21;9.67;;;5.87;;
16837;SDS011;19510;54.486;9.046;2022-12-18T10:26:55;9.33;;;5.77;;
16837;SDS011;19510;54.486;9.046;2022-12-18T10:29:37;10.40;;;5.77;;
16837;SDS011;19510;54.486;9.046;2022-12-18T10:32:03;10.40;;;5.50;;
16837;SDS011;19510;54.486;9.046;2022-12-18T10:34:29;8.83;;;5.63;;
16837;SDS011;19510;54.486;9.046;2022-12-18T10:36:54;9.03;;;4.97;;
16837;SDS011;19510;54.486;9.046;2022-12-18T10:39:21;9.13;;;4.93;;
16837;SDS011;19510;54.486;9.046;2022-12-18T10:41:48;9.40;;;5.67;;
16837;SDS011;19510;54.486;9.046;2022-12-18T10:44:21;6.93;;;5.47;;
16837;SDS011;19510;54.486;9.046;2022-12-18T10:46:49;18.27;;;8.43;;
16837;SDS011;19510;54.486;9.046;2022-12-18T10:49:29;12.03;;;5.90;;
16837;SDS011;19510;54.486;9.046;2022-12-18T10:52:16;11.67;;;5.97;;
16837;SDS011;19510;54.486;9.046;2022-12-18T10:55:02;7.17;;;5.30;;
16837;SDS011;19510;54.486;9.046;2022-12-18T10:57:36;11.07;;;5.97;;
16837;SDS011;19510;54.486;9.046;2022-12-18T11:02:51;11.10;;;5.60;;
16837;SDS011;19510;54.486;9.046;2022-12-18T11:07:53;9.77;;;5.17;;
16837;SDS011;19510;54.486;9.046;2022-12-18T11:10:21;11.23;;;5.80;;
16837;SDS011;19510;54.486;9.046;2022-12-18T11:12:53;9.83;;;5.93;;
16837;SDS011;19510;54.486;9.046;2022-12-18T11:15:21;8.53;;;4.97;;
16837;SDS011;19510;54.486;9.046;2022-12-18T11:17:52;9.93;;;5.00;;
16837;SDS011;19510;54.486;9.046;2022-12-18T11:22:57;10.00;;;5.37;;
16837;SDS011;19510;54.486;9.046;2022-12-18T11:25:25;10.30;;;6.00;;
16837;SDS011;19510;54.486;9.046;2022-12-18T11:27:54;9.73;;;5.27;;
16837;SDS011;19510;54.486;9.046;2022-12-18T11:35:42;7.20;;;4.77;;
16837;SDS011;19510;54.486;9.046;2022-12-18T11:41:13;10.70;;;5.37;;
16837;SDS011;19510;54.486;9.046;2022-12-18T11:43:54;8.80;;;4.90;;
16837;SDS011;19510;54.486;9.046;2022-12-18T11:46:25;10.87;;;6.00;;
16837;SDS011;19510;54.486;9.046;2022-12-18T11:51:48;9.87;;;5.03;;
16837;SDS011;19510;54.486;9.046;2022-12-18T11:54:24;13.10;;;4.77;;
16837;SDS011;19510;54.486;9.046;2022-12-18T12:02:37;12.33;;;6.20;;
16837;SDS011;19510;54.486;9.046;2022-12-18T12:05:17;8.93;;;5.23;;
16837;SDS011;19510;54.486;9.046;2022-12-18T12:10:35;9.30;;;5.17;;
16837;SDS011;19510;54.486;9.046;2022-12-18T12:13:38;9.63;;;5.57;;
16837;SDS011;19510;54.486;9.046;2022-12-18T12:16:25;8.33;;;5.17;;
16837;SDS011;19510;54.486;9.046;2022-12-18T12:24:53;10.53;;;5.60;;
16837;SDS011;19510;54.486;9.046;2022-12-18T12:30:15;12.43;;;6.33;;
16837;SDS011;19510;54.486;9.046;2022-12-18T12:32:48;12.07;;;6.60;;
16837;SDS011;19510;54.486;9.046;2022-12-18T12:40:44;9.20;;;5.40;;
16837;SDS011;19510;54.486;9.046;2022-12-18T12:43:20;7.50;;;4.70;;
16837;SDS011;19510;54.486;9.046;2022-12-18T12:46:10;8.13;;;4.83;;
16837;SDS011;19510;54.486;9.046;2022-12-18T12:48:48;8.70;;;4.70;;
16837;SDS011;19510;54.486;9.046;2022-12-18T12:51:21;9.27;;;5.30;;
16837;SDS011;19510;54.486;9.046;2022-12-18T12:53:50;9.50;;;5.43;;
16837;SDS011;19510;54.486;9.046;2022-12-18T12:56:19;8.47;;;4.97;;
16837;SDS011;19510;54.486;9.046;2022-12-18T12:58:49;11.03;;;6.00;;
16837;SDS011;19510;54.486;9.046;2022-12-18T13:01:49;12.07;;;6.33;;
16837;SDS011;19510;54.486;9.046;2022-12-18T13:04:31;8.73;;;5.10;;
16837;SDS011;19510;54.486;9.046;2022-12-18T13:07:17;12.73;;;5.57;;
16837;SDS011;19510;54.486;9.046;2022-12-18T13:18:01;7.53;;;4.90;;
16837;SDS011;19510;54.486;9.046;2022-12-18T13:21:17;11.30;;;4.83;;
16837;SDS011;19510;54.486;9.046;2022-12-18T13:26:49;10.03;;;4.83;;
16837;SDS011;19510;54.486;9.046;2022-12-18T13:36:35;12.20;;;6.57;;
16837;SDS011;19510;54.486;9.046;2022-12-18T13:51:25;9.13;;;5.80;;
16837;SDS011;19510;54.486;9.046;2022-12-18T13:56:43;10.43;;;5.50;;
16837;SDS011;19510;54.486;9.046;2022-12-18T14:01:53;9.00;;;5.67;;
16837;SDS011;19510;54.486;9.046;2022-12-18T14:04:29;9.93;;;6.30;;
16837;SDS011;19510;54.486;9.046;2022-12-18T14:07:01;10.93;;;6.40;;
16837;SDS011;19510;54.486;9.046;2022-12-18T14:09:43;14.60;;;6.27;;
16837;SDS011;19510;54.486;9.046;2022-12-18T14:12:21;10.57;;;6.10;;
16837;SDS011;19510;54.486;9.046;2022-12-18T14:15:06;11.43;;;6.13;;
16837;SDS011;19510;54.486;9.046;2022-12-18T14:17:44;11.37;;;6.67;;
16837;SDS011;19510;54.486;9.046;2022-12-18T14:20:14;8.87;;;5.70;;
16837;SDS011;19510;54.486;9.046;2022-12-18T14:22:45;9.97;;;5.47;;
16837;SDS011;19510;54.486;9.046;2022-12-18T14:27:51;16.60;;;8.43;;
16837;SDS011;19510;54.486;9.046;2022-12-18T14:30:29;16.73;;;8.73;;
16837;SDS011;19510;54.486;9.046;2022-12-18T14:33:10;14.00;;;7.43;;
16837;SDS011;19510;54.486;9.046;2022-12-18T14:35:42;22.17;;;13.00;;
16837;SDS011;19510;54.486;9.046;2022-12-18T14:38:21;33.87;;;17.03;;
16837;SDS011;19510;54.486;9.046;2022-12-18T14:40:58;16.63;;;10.20;;
16837;SDS011;19510;54.486;9.046;2022-12-18T14:43:33;12.10;;;6.93;;
16837;SDS011;19510;54.486;9.046;2022-12-18T14:46:00;13.77;;;7.23;;
16837;SDS011;19510;54.486;9.046;2022-12-18T14:51:03;17.17;;;8.00;;
16837;SDS011;19510;54.486;9.046;2022-12-18T14:53:33;17.73;;;9.13;;
16837;SDS011;19510;54.486;9.046;2022-12-18T14:56:03;14.07;;;7.60;;
16837;SDS011;19510;54.486;9.046;2022-12-18T14:58:38;11.47;;;6.80;;
16837;SDS011;19510;54.486;9.046;2022-12-18T15:01:04;11.57;;;6.23;;
16837;SDS011;19510;54.486;9.046;2022-12-18T15:03:31;14.23;;;6.80;;
16837;SDS011;19510;54.486;9.046;2022-12-18T15:05:58;11.27;;;6.77;;
16837;SDS011;19510;54.486;9.046;2022-12-18T15:08:43;14.53;;;7.87;;
16837;SDS011;19510;54.486;9.046;2022-12-18T15:14:00;16.60;;;10.13;;
16837;SDS011;19510;54.486;9.046;2022-12-18T15:16:54;15.87;;;10.23;;
16837;SDS011;19510;54.486;9.046;2022-12-18T15:19:21;13.93;;;8.43;;
16837;SDS011;19510;54.486;9.046;2022-12-18T15:21:50;13.10;;;7.87;;
16837;SDS011;19510;54.486;9.046;2022-12-18T15:24:16;13.90;;;8.17;;
16837;SDS011;19510;54.486;9.046;2022-12-18T15:26:46;11.50;;;6.33;;
16837;SDS011;19510;54.486;9.046;2022-12-18T15:29:20;14.63;;;7.37;;
16837;SDS011;19510;54.486;9.046;2022-12-18T15:34:27;15.13;;;8.17;;
16837;SDS011;19510;54.486;9.046;2022-12-18T15:36:56;12.70;;;6.80;;
16837;SDS011;19510;54.486;9.046;2022-12-18T15:39:22;11.77;;;6.60;;
16837;SDS011;19510;54.486;9.046;2022-12-18T15:41:48;11.23;;;6.23;;
16837;SDS011;19510;54.486;9.046;2022-12-18T15:44:35;12.23;;;7.23;;
16837;SDS011;19510;54.486;9.046;2022-12-18T15:47:01;10.43;;;6.10;;
16837;SDS011;19510;54.486;9.046;2022-12-18T15:49:27;12.43;;;6.20;;
16837;SDS011;19510;54.486;9.046;2022-12-18T15:51:56;14.17;;;5.93;;
16837;SDS011;19510;54.486;9.046;2022-12-18T15:54:24;11.97;;;6.63;;
16837;SDS011;19510;54.486;9.046;2022-12-18T15:57:09;9.03;;;5.20;;
16837;SDS011;19510;54.486;9.046;2022-12-18T15:59:48;11.47;;;6.20;;
16837;SDS011;19510;54.486;9.046;2022-12-18T16:02:19;11.83;;;5.80;;
16837;SDS011;19510;54.486;9.046;2022-12-18T16:04:47;10.57;;;5.93;;
16837;SDS011;19510;54.486;9.046;2022-12-18T16:07:13;10.23;;;6.77;;
16837;SDS011;19510;54.486;9.046;2022-12-18T16:09:41;13.40;;;7.20;;
16837;SDS011;19510;54.486;9.046;2022-12-18T16:12:17;13.13;;;6.83;;
16837;SDS011;19510;54.486;9.046;2022-12-18T16:14:45;12.53;;;7.23;;
16837;SDS011;19510;54.486;9.046;2022-12-18T16:17:11;12.40;;;6.80;;
16837;SDS011;19510;54.486;9.046;2022-12-18T16:19:38;12.67;;;7.03;;
16837;SDS011;19510;54.486;9.046;2022-12-18T16:22:04;11.63;;;6.20;;
16837;SDS011;19510;54.486;9.046;2022-12-18T16:24:31;13.47;;;6.83;;
16837;SDS011;19510;54.486;9.046;2022-12-18T16:26:59;11.23;;;6.33;;
16837;SDS011;19510;54.486;9.046;2022-12-18T16:29:25;12.17;;;6.53;;
16837;SDS011;19510;54.486;9.046;2022-12-18T16:31:59;12.60;;;6.63;;
16837;SDS011;19510;54.486;9.046;2022-12-18T16:34:28;11.53;;;5.87;;
16837;SDS011;19510;54.486;9.046;2022-12-18T16:37:05;14.30;;;6.67;;
16837;SDS011;19510;54.486;9.046;2022-12-18T16:39:32;17.63;;;9.67;;
16837;SDS011;19510;54.486;9.046;2022-12-18T16:41:59;13.93;;;7.80;;
16837;SDS011;19510;54.486;9.046;2022-12-18T16:44:26;12.50;;;7.50;;
16837;SDS011;19510;54.486;9.046;2022-12-18T16:46:51;12.20;;;5.90;;
16837;SDS011;19510;54.486;9.046;2022-12-18T16:49:18;11.07;;;6.23;;
16837;SDS011;19510;54.486;9.046;2022-12-18T16:51:47;9.97;;;6.40;;
16837;SDS011;19510;54.486;9.046;2022-12-18T16:54:13;19.07;;;9.70;;
16837;SDS011;19510;54.486;9.046;2022-12-18T16:56:39;16.37;;;9.57;;
16837;SDS011;19510;54.486;9.046;2022-12-18T16:59:07;13.43;;;7.17;;
16837;SDS011;19510;54.486;9.046;2022-12-18T17:01:35;12.07;;;7.07;;
16837;SDS011;19510;54.486;9.046;2022-12-18T17:04:02;10.13;;;5.97;;
16837;SDS011;19510;54.486;9.046;2022-12-18T17:06:30;17.77;;;7.33;;
16837;SDS011;19510;54.486;9.046;2022-12-18T17:09:00;14.00;;;6.47;;
16837;SDS011;19510;54.486;9.046;2022-12-18T17:11:28;13.10;;;6.93;;
16837;SDS011;19510;54.486;9.046;2022-12-18T17:13:55;15.13;;;8.10;;
16837;SDS011;19510;54.486;9.046;2022-12-18T17:16:22;16.77;;;8.97;;
16837;SDS011;19510;54.486;9.046;2022-12-18T17:18:48;14.43;;;8.33;;
16837;SDS011;19510;54.486;9.046;2022-12-18T17:21:14;12.83;;;7.00;;
16837;SDS011;19510;54.486;9.046;2022-12-18T17:23:40;16.83;;;8.10;;
16837;SDS011;19510;54.486;9.046;2022-12-18T17:26:07;11.83;;;7.00;;
16837;SDS011;19510;54.486;9.046;2022-12-18T17:28:34;11.30;;;6.30;;
16837;SDS011;19510;54.486;9.046;2022-12-18T17:31:02;12.33;;;5.73;;
16837;SDS011;19510;54.486;9.046;2022-12-18T17:33:35;19.57;;;11.50;;
16837;SDS011;19510;54.486;9.046;2022-12-18T17:36:01;15.60;;;7.67;;
16837;SDS011;19510;54.486;9.046;2022-12-18T17:38:27;13.63;;;7.73;;
16837;SDS011;19510;54.486;9.046;2022-12-18T17:40:53;15.83;;;8.33;;
16837;SDS011;19510;54.486;9.046;2022-12-18T17:43:18;14.53;;;7.47;;
16837;SDS011;19510;54.486;9.046;2022-12-18T17:45:44;16.07;;;9.23;;
16837;SDS011;19510;54.486;9.046;2022-12-18T17:48:10;17.50;;;10.93;;
16837;SDS011;19510;54.486;9.046;2022-12-18T17:50:35;16.33;;;7.70;;
16837;SDS011;19510;54.486;9.046;2022-12-18T17:53:01;15.43;;;7.73;;
16837;SDS011;19510;54.486;9.046;2022-12-18T17:55:27;14.33;;;7.57;;
16837;SDS011;19510;54.486;9.046;2022-12-18T17:57:54;12.80;;;7.13;;
16837;SDS011;19510;54.486;9.046;2022-12-18T18:00:19;16.37;;;8.57;;
16837;SDS011;19510;54.486;9.046;2022-12-18T18:02:45;13.93;;;6.73;;
16837;SDS011;19510;54.486;9.046;2022-12-18T18:05:11;15.03;;;7.20;;
16837;SDS011;19510;54.486;9.046;2022-12-18T18:07:37;15.17;;;6.97;;
16837;SDS011;19510;54.486;9.046;2022-12-18T18:10:04;15.93;;;7.83;;
16837;SDS011;19510;54.486;9.046;2022-12-18T18:12:31;16.10;;;8.20;;
16837;SDS011;19510;54.486;9.046;2022-12-18T18:15:15;18.23;;;8.17;;
16837;SDS011;19510;54.486;9.046;2022-12-18T18:17:44;22.47;;;8.67;;
16837;SDS011;19510;54.486;9.046;2022-12-18T18:20:10;19.37;;;8.57;;
16837;SDS011;19510;54.486;9.046;2022-12-18T18:22:35;16.70;;;7.67;;
16837;SDS011;19510;54.486;9.046;2022-12-18T18:25:01;21.90;;;8.70;;
16837;SDS011;19510;54.486;9.046;2022-12-18T18:27:27;20.30;;;8.80;;
16837;SDS011;19510;54.486;9.046;2022-12-18T18:29:55;22.97;;;8.23;;
16837;SDS011;19510;54.486;9.046;2022-12-18T18:32:20;16.93;;;7.20;;
16837;SDS011;19510;54.486;9.046;2022-12-18T18:34:51;17.00;;;8.27;;
16837;SDS011;19510;54.486;9.046;2022-12-18T18:37:16;18.90;;;7.40;;
16837;SDS011;19510;54.486;9.046;2022-12-18T18:39:42;14.87;;;6.90;;
16837;SDS011;19510;54.486;9.046;2022-12-18T18:42:08;20.30;;;8.40;;
16837;SDS011;19510;54.486;9.046;2022-12-18T18:44:34;14.97;;;7.40;;
16837;SDS011;19510;54.486;9.046;2022-12-18T18:47:02;18.30;;;8.23;;
16837;SDS011;19510;54.486;9.046;2022-12-18T18:49:27;16.13;;;7.20;;
16837;SDS011;19510;54.486;9.046;2022-12-18T18:51:55;23.00;;;8.40;;
16837;SDS011;19510;54.486;9.046;2022-12-18T18:54:21;20.53;;;8.03;;
16837;SDS011;19510;54.486;9.046;2022-12-18T18:56:50;16.80;;;8.30;;
16837;SDS011;19510;54.486;9.046;2022-12-18T18:59:16;18.97;;;8.20;;
16837;SDS011;19510;54.486;9.046;2022-12-18T19:01:42;22.07;;;8.10;;
16837;SDS011;19510;54.486;9.046;2022-12-18T19:04:08;18.83;;;7.97;;
16837;SDS011;19510;54.486;9.046;2022-12-18T19:06:34;19.53;;;7.93;;
16837;SDS011;19510;54.486;9.046;2022-12-18T19:09:00;19.43;;;8.57;;
16837;SDS011;19510;54.486;9.046;2022-12-18T19:11:26;23.87;;;10.37;;
16837;SDS011;19510;54.486;9.046;2022-12-18T19:14:11;37.20;;;15.63;;
16837;SDS011;19510;54.486;9.046;2022-12-18T19:16:41;18.47;;;8.47;;
16837;SDS011;19510;54.486;9.046;2022-12-18T19:19:09;25.97;;;9.90;;
16837;SDS011;19510;54.486;9.046;2022-12-18T19:21:35;25.63;;;9.63;;
16837;SDS011;19510;54.486;9.046;2022-12-18T19:24:04;26.57;;;9.30;;
16837;SDS011;19510;54.486;9.046;2022-12-18T19:26:30;21.23;;;8.40;;
16837;SDS011;19510;54.486;9.046;2022-12-18T19:29:03;30.53;;;12.00;;
16837;SDS011;19510;54.486;9.046;2022-12-18T19:31:30;19.73;;;8.67;;
16837;SDS011;19510;54.486;9.046;2022-12-18T19:33:57;22.73;;;9.70;;
16837;SDS011;19510;54.486;9.046;2022-12-18T19:36:24;21.13;;;9.37;;
16837;SDS011;19510;54.486;9.046;2022-12-18T19:38:52;21.30;;;8.40;;
16837;SDS011;19510;54.486;9.046;2022-12-18T19:41:24;19.00;;;8.70;;
16837;SDS011;19510;54.486;9.046;2022-12-18T19:43:51;18.20;;;8.33;;
16837;SDS011;19510;54.486;9.046;2022-12-18T19:46:18;20.33;;;8.57;;
16837;SDS011;19510;54.486;9.046;2022-12-18T19:48:45;20.13;;;8.43;;
16837;SDS011;19510;54.486;9.046;2022-12-18T19:51:22;21.00;;;8.40;;
16837;SDS011;19510;54.486;9.046;2022-12-18T19:53:51;19.27;;;7.53;;
16837;SDS011;19510;54.486;9.046;2022-12-18T19:56:19;21.17;;;8.60;;
16837;SDS011;19510;54.486;9.046;2022-12-18T19:58:46;16.70;;;8.17;;
16837;SDS011;19510;54.486;9.046;2022-12-18T20:01:12;16.83;;;8.03;;
16837;SDS011;19510;54.486;9.046;2022-12-18T20:03:41;18.60;;;7.37;;
16837;SDS011;19510;54.486;9.046;2022-12-18T20:06:09;19.13;;;8.10;;
16837;SDS011;19510;54.486;9.046;2022-12-18T20:08:37;17.60;;;8.57;;
16837;SDS011;19510;54.486;9.046;2022-12-18T20:11:03;22.80;;;9.40;;
16837;SDS011;19510;54.486;9.046;2022-12-18T20:13:29;18.70;;;7.80;;
16837;SDS011;19510;54.486;9.046;2022-12-18T20:15:55;16.30;;;7.87;;
16837;SDS011;19510;54.486;9.046;2022-12-18T20:18:21;23.10;;;8.47;;
16837;SDS011;19510;54.486;9.046;2022-12-18T20:20:46;20.97;;;7.83;;
16837;SDS011;19510;54.486;9.046;2022-12-18T20:23:12;15.70;;;7.77;;
16837;SDS011;19510;54.486;9.046;2022-12-18T20:25:40;16.30;;;8.07;;
16837;SDS011;19510;54.486;9.046;2022-12-18T20:28:06;19.30;;;8.70;;
16837;SDS011;19510;54.486;9.046;2022-12-18T20:30:32;20.67;;;8.50;;
16837;SDS011;19510;54.486;9.046;2022-12-18T20:32:57;16.40;;;8.00;;
16837;SDS011;19510;54.486;9.046;2022-12-18T20:35:23;15.67;;;7.87;;
16837;SDS011;19510;54.486;9.046;2022-12-18T20:37:52;17.00;;;8.33;;
16837;SDS011;19510;54.486;9.046;2022-12-18T20:40:20;17.70;;;7.13;;
16837;SDS011;19510;54.486;9.046;2022-12-18T20:42:48;13.70;;;7.07;;
16837;SDS011;19510;54.486;9.046;2022-12-18T20:45:16;19.40;;;8.00;;
16837;SDS011;19510;54.486;9.046;2022-12-18T20:47:45;17.77;;;7.73;;
16837;SDS011;19510;54.486;9.046;2022-12-18T20:50:10;18.63;;;7.57;;
16837;SDS011;19510;54.486;9.046;2022-12-18T20:52:38;15.70;;;7.57;;
16837;SDS011;19510;54.486;9.046;2022-12-18T20:55:04;19.93;;;8.47;;
16837;SDS011;19510;54.486;9.046;2022-12-18T20:57:31;12.50;;;7.23;;
16837;SDS011;19510;54.486;9.046;2022-12-18T20:59:56;13.93;;;6.80;;
16837;SDS011;19510;54.486;9.046;2022-12-18T21:02:22;19.33;;;8.90;;
16837;SDS011;19510;54.486;9.046;2022-12-18T21:04:48;16.60;;;7.77;;
16837;SDS011;19510;54.486;9.046;2022-12-18T21:07:14;17.77;;;8.40;;
16837;SDS011;19510;54.486;9.046;2022-12-18T21:09:40;17.60;;;8.40;;
16837;SDS011;19510;54.486;9.046;2022-12-18T21:12:09;16.80;;;7.73;;
16837;SDS011;19510;54.486;9.046;2022-12-18T21:14:58;17.07;;;7.90;;
16837;SDS011;19510;54.486;9.046;2022-12-18T21:17:31;18.83;;;8.23;;
16837;SDS011;19510;54.486;9.046;2022-12-18T21:19:58;19.00;;;7.57;;
16837;SDS011;19510;54.486;9.046;2022-12-18T21:22:24;17.63;;;8.57;;
16837;SDS011;19510;54.486;9.046;2022-12-18T21:24:50;14.57;;;7.77;;
16837;SDS011;19510;54.486;9.046;2022-12-18T21:27:16;17.87;;;6.77;;
16837;SDS011;19510;54.486;9.046;2022-12-18T21:29:42;11.87;;;6.40;;
16837;SDS011;19510;54.486;9.046;2022-12-18T21:32:08;16.23;;;7.30;;
16837;SDS011;19510;54.486;9.046;2022-12-18T21:34:34;13.63;;;6.87;;
16837;SDS011;19510;54.486;9.046;2022-12-18T21:37:00;12.77;;;6.40;;
16837;SDS011;19510;54.486;9.046;2022-12-18T21:39:26;15.20;;;7.37;;
16837;SDS011;19510;54.486;9.046;2022-12-18T21:41:53;12.47;;;6.00;;
16837;SDS011;19510;54.486;9.046;2022-12-18T21:44:38;17.67;;;7.10;;
16837;SDS011;19510;54.486;9.046;2022-12-18T21:47:04;17.20;;;8.17;;
